Airfield :







YOU CAN JOIN US ON...

 
LOGIN :

Register | Disclaimer

   EN    FR    IT 

 









Legend :    VFR   Marginal VFR   IFR   Intensive IFR   Very Intensive IFR
Visi :
Ceiling :
>= 8 km
>= 3000ft
5 to 8 km
1000 to 3000 ft
1500m to 5 km
500 to 1000 ft
800 to 1500m
200 to 500 ft
< 800m
< 200 ft
Symbols :   Thunderstorms  Fog  Heavy snow  Heavy precipitations  Wind > 20 kt






- Airport Elevation : 36 ft
- IATA code : PTP


TFFR - Le Raizet

CURRENT METAR :
  • 221500Z AUTO 09010KT 060V120 9999 BKN036 OVC045 26/20 Q1014

EXPIRED METARs :
  • 221430Z AUTO 08012KT 060V120 9999 SCT040/// OVC047/// ///TCU 26/21 Q1015
  • 221400Z AUTO 09008KT 050V130 9999 SCT022 BKN032 BKN039 26/21 Q1015
  • 221330Z AUTO 09008KT 040V110 9999 SCT023 SCT039 BKN047 26/22 Q1014
  • 221300Z AUTO 08006KT 050V110 9999 FEW040 BKN060 OVC072 26/21 Q1014
  • 221230Z AUTO VRB02KT 9999 FEW029 BKN047 OVC058 23/22 Q1014

TAF TAF TFFR
Valid from the 21 at 18:00 until the 22 at 18:00 UTC


211700Z 2118/2218 09010KT 9999 SCT025 BKN040
PROB40
TEMPO 2118/2210 4000 SHRA SCT015 BKN020TCU
BECMG 2122/2124 VRB03KT
BECMG 2212/2214 12010KT



MET'MAP, your aeronautical weather chart ! - Copyright ORBIFLY December 2007 - Disclaimer

ORBIFLY MET'MAP TEAM :

Programming & Development : Alexandra Zaïnal
Concept & original design : Baudouin d'Aumeries
Assistance for programming : Marc-Olivier Méhu
Technical & hardware support : Manuel Goepfert

Contact : metmap@orbifly.com




SOURCES & CREDITS :

   NOAA